sensor_id;sensor_type;location;lat;lon;timestamp;temperature;humidity
66740;DHT22;53653;52.188;8.602;2023-09-12T00:01:06;21.03;78.66
66740;DHT22;53653;52.188;8.602;2023-09-12T00:03:32;21.07;78.34
66740;DHT22;53653;52.188;8.602;2023-09-12T00:05:59;21.07;77.90
66740;DHT22;53653;52.188;8.602;2023-09-12T00:08:25;21.15;77.73
66740;DHT22;53653;52.188;8.602;2023-09-12T00:11:05;21.14;77.34
66740;DHT22;53653;52.188;8.602;2023-09-12T00:13:32;21.17;77.38
66740;DHT22;53653;52.188;8.602;2023-09-12T00:15:58;21.18;77.02
66740;DHT22;53653;52.188;8.602;2023-09-12T00:18:24;21.18;77.26
66740;DHT22;53653;52.188;8.602;2023-09-12T00:20:50;21.17;77.31
66740;DHT22;53653;52.188;8.602;2023-09-12T00:23:16;21.05;77.73
66740;DHT22;53653;52.188;8.602;2023-09-12T00:25:42;20.97;78.07
66740;DHT22;53653;52.188;8.602;2023-09-12T00:28:07;20.95;78.14
66740;DHT22;53653;52.188;8.602;2023-09-12T00:30:32;21.17;77.53
66740;DHT22;53653;52.188;8.602;2023-09-12T00:32:58;21.28;77.12
66740;DHT22;53653;52.188;8.602;2023-09-12T00:35:24;21.39;76.56
66740;DHT22;53653;52.188;8.602;2023-09-12T00:37:50;21.46;76.51
66740;DHT22;53653;52.188;8.602;2023-09-12T00:40:15;21.55;75.78
66740;DHT22;53653;52.188;8.602;2023-09-12T00:42:41;21.63;75.80
66740;DHT22;53653;52.188;8.602;2023-09-12T00:45:07;21.71;75.93
66740;DHT22;53653;52.188;8.602;2023-09-12T00:47:32;21.73;76.00
66740;DHT22;53653;52.188;8.602;2023-09-12T00:49:59;21.75;76.22
66740;DHT22;53653;52.188;8.602;2023-09-12T00:52:26;21.78;76.07
66740;DHT22;53653;52.188;8.602;2023-09-12T00:54:53;21.80;75.90
66740;DHT22;53653;52.188;8.602;2023-09-12T00:57:19;21.86;75.66
66740;DHT22;53653;52.188;8.602;2023-09-12T00:59:47;21.90;75.75
66740;DHT22;53653;52.188;8.602;2023-09-12T01:02:13;21.89;76.12
66740;DHT22;53653;52.188;8.602;2023-09-12T01:04:39;21.66;78.06
66740;DHT22;53653;52.188;8.602;2023-09-12T01:07:05;21.42;80.92
66740;DHT22;53653;52.188;8.602;2023-09-12T01:09:32;21.21;82.65
66740;DHT22;53653;52.188;8.602;2023-09-12T01:11:57;21.01;83.84
66740;DHT22;53653;52.188;8.602;2023-09-12T01:14:23;20.83;84.69
66740;DHT22;53653;52.188;8.602;2023-09-12T01:16:49;20.67;85.34
66740;DHT22;53653;52.188;8.602;2023-09-12T01:19:15;20.65;86.01
66740;DHT22;53653;52.188;8.602;2023-09-12T01:27:34;20.83;86.82
66740;DHT22;53653;52.188;8.602;2023-09-12T01:30:05;21.00;87.12
66740;DHT22;53653;52.188;8.602;2023-09-12T01:32:32;21.15;86.86
66740;DHT22;53653;52.188;8.602;2023-09-12T01:34:59;21.07;87.82
66740;DHT22;53653;52.188;8.602;2023-09-12T01:37:24;20.83;88.97
66740;DHT22;53653;52.188;8.602;2023-09-12T01:39:51;20.79;89.13
66740;DHT22;53653;52.188;8.602;2023-09-12T01:42:18;20.81;88.99
66740;DHT22;53653;52.188;8.602;2023-09-12T01:44:45;20.91;88.70
66740;DHT22;53653;52.188;8.602;2023-09-12T01:47:12;20.94;88.55
66740;DHT22;53653;52.188;8.602;2023-09-12T01:49:43;21.04;88.13
66740;DHT22;53653;52.188;8.602;2023-09-12T01:52:11;21.21;87.38
66740;DHT22;53653;52.188;8.602;2023-09-12T01:54:37;21.28;87.16
66740;DHT22;53653;52.188;8.602;2023-09-12T01:57:03;21.35;86.91
66740;DHT22;53653;52.188;8.602;2023-09-12T01:59:29;21.43;86.68
66740;DHT22;53653;52.188;8.602;2023-09-12T02:01:55;21.42;86.39
66740;DHT22;53653;52.188;8.602;2023-09-12T02:04:20;21.28;87.17
66740;DHT22;53653;52.188;8.602;2023-09-12T02:06:46;21.28;87.03
66740;DHT22;53653;52.188;8.602;2023-09-12T02:09:11;21.27;87.08
66740;DHT22;53653;52.188;8.602;2023-09-12T02:11:37;21.24;87.26
66740;DHT22;53653;52.188;8.602;2023-09-12T02:14:03;21.38;86.89
66740;DHT22;53653;52.188;8.602;2023-09-12T02:16:30;21.48;86.11
66740;DHT22;53653;52.188;8.602;2023-09-12T02:18:56;21.56;85.62
66740;DHT22;53653;52.188;8.602;2023-09-12T02:21:21;21.56;85.68
66740;DHT22;53653;52.188;8.602;2023-09-12T02:23:47;21.59;85.75
66740;DHT22;53653;52.188;8.602;2023-09-12T02:26:12;21.53;85.77
66740;DHT22;53653;52.188;8.602;2023-09-12T02:28:38;21.52;85.45
66740;DHT22;53653;52.188;8.602;2023-09-12T02:31:09;21.34;86.43
66740;DHT22;53653;52.188;8.602;2023-09-12T02:33:35;21.01;87.77
66740;DHT22;53653;52.188;8.602;2023-09-12T02:36:00;20.83;88.92
66740;DHT22;53653;52.188;8.602;2023-09-12T02:38:25;20.76;89.50
66740;DHT22;53653;52.188;8.602;2023-09-12T02:40:52;20.73;89.65
66740;DHT22;53653;52.188;8.602;2023-09-12T02:43:17;20.80;89.23
66740;DHT22;53653;52.188;8.602;2023-09-12T02:45:43;20.84;89.03
66740;DHT22;53653;52.188;8.602;2023-09-12T02:48:08;20.81;89.15
66740;DHT22;53653;52.188;8.602;2023-09-12T02:50:34;20.87;89.19
66740;DHT22;53653;52.188;8.602;2023-09-12T02:52:59;20.86;89.35
66740;DHT22;53653;52.188;8.602;2023-09-12T02:55:25;20.87;89.95
66740;DHT22;53653;52.188;8.602;2023-09-12T02:57:50;20.93;89.58
66740;DHT22;53653;52.188;8.602;2023-09-12T03:00:16;20.72;90.58
66740;DHT22;53653;52.188;8.602;2023-09-12T03:02:41;20.26;91.35
66740;DHT22;53653;52.188;8.602;2023-09-12T03:05:07;20.07;91.14
66740;DHT22;53653;52.188;8.602;2023-09-12T03:07:33;19.97;90.58
66740;DHT22;53653;52.188;8.602;2023-09-12T03:09:58;19.92;91.70
66740;DHT22;53653;52.188;8.602;2023-09-12T03:12:24;19.87;94.16
66740;DHT22;53653;52.188;8.602;2023-09-12T03:14:49;19.87;93.84
66740;DHT22;53653;52.188;8.602;2023-09-12T03:17:15;19.87;93.52
66740;DHT22;53653;52.188;8.602;2023-09-12T03:19:40;19.97;92.93
66740;DHT22;53653;52.188;8.602;2023-09-12T03:22:06;20.16;92.57
66740;DHT22;53653;52.188;8.602;2023-09-12T03:24:31;20.29;91.54
66740;DHT22;53653;52.188;8.602;2023-09-12T03:26:57;20.35;91.31
66740;DHT22;53653;52.188;8.602;2023-09-12T03:29:23;20.24;91.05
66740;DHT22;53653;52.188;8.602;2023-09-12T03:31:48;20.02;93.24
66740;DHT22;53653;52.188;8.602;2023-09-12T03:34:14;19.95;94.17
66740;DHT22;53653;52.188;8.602;2023-09-12T03:36:40;19.87;92.88
66740;DHT22;53653;52.188;8.602;2023-09-12T03:39:05;19.89;93.26
66740;DHT22;53653;52.188;8.602;2023-09-12T03:41:37;19.99;92.77
66740;DHT22;53653;52.188;8.602;2023-09-12T03:44:02;20.18;92.11
66740;DHT22;53653;52.188;8.602;2023-09-12T03:46:28;20.24;91.56
66740;DHT22;53653;52.188;8.602;2023-09-12T03:48:53;20.24;92.36
66740;DHT22;53653;52.188;8.602;2023-09-12T03:51:19;20.24;92.42
66740;DHT22;53653;52.188;8.602;2023-09-12T03:53:44;20.42;90.78
66740;DHT22;53653;52.188;8.602;2023-09-12T03:56:13;20.50;90.46
66740;DHT22;53653;52.188;8.602;2023-09-12T03:58:40;20.49;90.22
66740;DHT22;53653;52.188;8.602;2023-09-12T04:01:06;20.36;90.85
66740;DHT22;53653;52.188;8.602;2023-09-12T04:03:31;20.37;90.28
66740;DHT22;53653;52.188;8.602;2023-09-12T04:05:58;20.25;90.53
66740;DHT22;53653;52.188;8.602;2023-09-12T04:08:23;20.16;90.61
66740;DHT22;53653;52.188;8.602;2023-09-12T04:10:49;19.88;90.35
66740;DHT22;53653;52.188;8.602;2023-09-12T04:13:14;19.51;89.49
66740;DHT22;53653;52.188;8.602;2023-09-12T04:15:40;19.08;91.06
66740;DHT22;53653;52.188;8.602;2023-09-12T04:18:05;18.84;92.17
66740;DHT22;53653;52.188;8.602;2023-09-12T04:20:31;18.71;92.06
66740;DHT22;53653;52.188;8.602;2023-09-12T04:22:57;18.67;91.96
66740;DHT22;53653;52.188;8.602;2023-09-12T04:25:22;18.68;91.35
66740;DHT22;53653;52.188;8.602;2023-09-12T04:27:48;18.96;89.67
66740;DHT22;53653;52.188;8.602;2023-09-12T04:30:13;19.19;88.13
66740;DHT22;53653;52.188;8.602;2023-09-12T04:32:39;19.26;87.95
66740;DHT22;53653;52.188;8.602;2023-09-12T04:35:05;19.27;87.22
66740;DHT22;53653;52.188;8.602;2023-09-12T04:37:30;19.09;87.17
66740;DHT22;53653;52.188;8.602;2023-09-12T04:39:56;18.88;88.55
66740;DHT22;53653;52.188;8.602;2023-09-12T04:42:22;18.75;89.85
66740;DHT22;53653;52.188;8.602;2023-09-12T04:44:47;18.75;90.27
66740;DHT22;53653;52.188;8.602;2023-09-12T04:47:13;18.72;90.92
66740;DHT22;53653;52.188;8.602;2023-09-12T04:49:39;18.65;91.62
66740;DHT22;53653;52.188;8.602;2023-09-12T04:52:06;18.71;91.72
66740;DHT22;53653;52.188;8.602;2023-09-12T04:54:32;18.68;92.13
66740;DHT22;53653;52.188;8.602;2023-09-12T04:56:57;18.67;92.05
66740;DHT22;53653;52.188;8.602;2023-09-12T04:59:22;18.60;91.96
66740;DHT22;53653;52.188;8.602;2023-09-12T05:01:48;18.43;92.72
66740;DHT22;53653;52.188;8.602;2023-09-12T05:04:14;18.34;93.38
66740;DHT22;53653;52.188;8.602;2023-09-12T05:06:40;18.32;93.41
66740;DHT22;53653;52.188;8.602;2023-09-12T05:09:05;18.43;92.51
66740;DHT22;53653;52.188;8.602;2023-09-12T05:11:34;18.34;91.65
66740;DHT22;53653;52.188;8.602;2023-09-12T05:14:00;18.27;91.29
66740;DHT22;53653;52.188;8.602;2023-09-12T05:16:25;18.14;91.38
66740;DHT22;53653;52.188;8.602;2023-09-12T05:18:51;18.07;91.36
66740;DHT22;53653;52.188;8.602;2023-09-12T05:21:16;18.09;91.46
66740;DHT22;53653;52.188;8.602;2023-09-12T05:23:42;18.04;92.07
66740;DHT22;53653;52.188;8.602;2023-09-12T05:26:08;18.14;92.31
66740;DHT22;53653;52.188;8.602;2023-09-12T05:28:34;18.30;91.37
66740;DHT22;53653;52.188;8.602;2023-09-12T05:30:59;18.40;91.02
66740;DHT22;53653;52.188;8.602;2023-09-12T05:33:25;18.45;91.33
66740;DHT22;53653;52.188;8.602;2023-09-12T05:35:50;18.33;90.99
66740;DHT22;53653;52.188;8.602;2023-09-12T05:38:16;18.18;92.56
66740;DHT22;53653;52.188;8.602;2023-09-12T05:40:41;18.02;93.76
66740;DHT22;53653;52.188;8.602;2023-09-12T05:43:16;18.03;93.33
66740;DHT22;53653;52.188;8.602;2023-09-12T05:45:43;18.03;93.72
66740;DHT22;53653;52.188;8.602;2023-09-12T05:48:08;18.02;92.92
66740;DHT22;53653;52.188;8.602;2023-09-12T05:50:41;18.04;93.44
66740;DHT22;53653;52.188;8.602;2023-09-12T05:53:08;18.04;93.10
66740;DHT22;53653;52.188;8.602;2023-09-12T05:55:34;18.06;94.08
66740;DHT22;53653;52.188;8.602;2023-09-12T05:57:59;18.07;94.05
66740;DHT22;53653;52.188;8.602;2023-09-12T06:00:25;18.03;94.71
66740;DHT22;53653;52.188;8.602;2023-09-12T06:02:51;18.03;94.90
66740;DHT22;53653;52.188;8.602;2023-09-12T06:05:16;18.00;95.55
66740;DHT22;53653;52.188;8.602;2023-09-12T06:07:42;18.06;95.00
66740;DHT22;53653;52.188;8.602;2023-09-12T06:10:08;18.12;94.83
66740;DHT22;53653;52.188;8.602;2023-09-12T06:12:34;18.16;94.49
66740;DHT22;53653;52.188;8.602;2023-09-12T06:15:02;18.32;93.82
66740;DHT22;53653;52.188;8.602;2023-09-12T06:17:27;18.45;93.08
66740;DHT22;53653;52.188;8.602;2023-09-12T06:19:54;18.53;92.72
66740;DHT22;53653;52.188;8.602;2023-09-12T06:22:20;18.36;92.81
66740;DHT22;53653;52.188;8.602;2023-09-12T06:24:45;18.24;93.40
66740;DHT22;53653;52.188;8.602;2023-09-12T06:27:11;18.26;93.64
66740;DHT22;53653;52.188;8.602;2023-09-12T06:29:44;18.37;93.55
66740;DHT22;53653;52.188;8.602;2023-09-12T06:32:10;18.47;93.34
66740;DHT22;53653;52.188;8.602;2023-09-12T06:34:35;18.51;92.80
66740;DHT22;53653;52.188;8.602;2023-09-12T06:37:01;18.34;94.00
66740;DHT22;53653;52.188;8.602;2023-09-12T06:39:26;18.34;94.82
66740;DHT22;53653;52.188;8.602;2023-09-12T06:41:52;18.45;94.45
66740;DHT22;53653;52.188;8.602;2023-09-12T06:44:17;18.47;93.46
66740;DHT22;53653;52.188;8.602;2023-09-12T06:46:42;18.51;93.30
66740;DHT22;53653;52.188;8.602;2023-09-12T06:49:08;18.58;93.20
66740;DHT22;53653;52.188;8.602;2023-09-12T06:51:33;18.53;93.80
66740;DHT22;53653;52.188;8.602;2023-09-12T06:53:58;18.47;94.42
66740;DHT22;53653;52.188;8.602;2023-09-12T06:56:27;18.40;93.91
66740;DHT22;53653;52.188;8.602;2023-09-12T06:58:52;18.38;94.07
66740;DHT22;53653;52.188;8.602;2023-09-12T07:01:20;18.47;93.83
66740;DHT22;53653;52.188;8.602;2023-09-12T07:03:46;18.60;93.46
66740;DHT22;53653;52.188;8.602;2023-09-12T07:06:12;18.69;92.58
66740;DHT22;53653;52.188;8.602;2023-09-12T07:08:37;18.82;92.19
66740;DHT22;53653;52.188;8.602;2023-09-12T07:11:04;18.91;91.72
66740;DHT22;53653;52.188;8.602;2023-09-12T07:13:34;18.84;91.93
66740;DHT22;53653;52.188;8.602;2023-09-12T07:16:00;18.78;92.48
66740;DHT22;53653;52.188;8.602;2023-09-12T07:18:28;18.85;92.19
66740;DHT22;53653;52.188;8.602;2023-09-12T07:21:01;18.87;92.05
66740;DHT22;53653;52.188;8.602;2023-09-12T07:23:27;18.82;92.14
66740;DHT22;53653;52.188;8.602;2023-09-12T07:25:54;18.98;91.07
66740;DHT22;53653;52.188;8.602;2023-09-12T07:28:21;18.95;90.93
66740;DHT22;53653;52.188;8.602;2023-09-12T07:30:46;18.95;91.15
66740;DHT22;53653;52.188;8.602;2023-09-12T07:33:12;18.85;91.54
66740;DHT22;53653;52.188;8.602;2023-09-12T07:35:38;18.78;91.47
66740;DHT22;53653;52.188;8.602;2023-09-12T07:38:04;18.69;91.86
66740;DHT22;53653;52.188;8.602;2023-09-12T07:40:29;18.68;91.64
66740;DHT22;53653;52.188;8.602;2023-09-12T07:42:55;18.54;92.03
66740;DHT22;53653;52.188;8.602;2023-09-12T07:45:20;18.51;92.87
66740;DHT22;53653;52.188;8.602;2023-09-12T07:47:46;18.48;93.30
66740;DHT22;53653;52.188;8.602;2023-09-12T07:50:12;18.50;93.74
66740;DHT22;53653;52.188;8.602;2023-09-12T07:52:37;18.61;93.09
66740;DHT22;53653;52.188;8.602;2023-09-12T07:55:03;18.60;92.65
66740;DHT22;53653;52.188;8.602;2023-09-12T07:57:29;18.62;92.94
66740;DHT22;53653;52.188;8.602;2023-09-12T07:59:57;18.62;92.88
66740;DHT22;53653;52.188;8.602;2023-09-12T08:02:23;18.60;93.35
66740;DHT22;53653;52.188;8.602;2023-09-12T08:04:49;18.51;93.52
66740;DHT22;53653;52.188;8.602;2023-09-12T08:07:16;18.40;93.52
66740;DHT22;53653;52.188;8.602;2023-09-12T08:10:08;18.32;94.57
66740;DHT22;53653;52.188;8.602;2023-09-12T08:12:33;18.36;94.62
66740;DHT22;53653;52.188;8.602;2023-09-12T08:15:00;18.44;94.34
66740;DHT22;53653;52.188;8.602;2023-09-12T08:17:25;18.41;94.98
66740;DHT22;53653;52.188;8.602;2023-09-12T08:19:51;18.36;94.78
66740;DHT22;53653;52.188;8.602;2023-09-12T08:22:17;18.18;95.56
66740;DHT22;53653;52.188;8.602;2023-09-12T08:24:42;18.23;95.64
66740;DHT22;53653;52.188;8.602;2023-09-12T08:27:08;18.34;95.32
66740;DHT22;53653;52.188;8.602;2023-09-12T08:29:35;18.43;94.67
66740;DHT22;53653;52.188;8.602;2023-09-12T08:32:01;18.51;93.97
66740;DHT22;53653;52.188;8.602;2023-09-12T08:34:26;18.61;93.26
66740;DHT22;53653;52.188;8.602;2023-09-12T08:36:52;18.72;92.65
66740;DHT22;53653;52.188;8.602;2023-09-12T08:39:27;18.69;92.54
66740;DHT22;53653;52.188;8.602;2023-09-12T08:41:54;18.64;92.63
66740;DHT22;53653;52.188;8.602;2023-09-12T08:44:20;18.61;93.03
66740;DHT22;53653;52.188;8.602;2023-09-12T08:46:46;18.34;94.26
66740;DHT22;53653;52.188;8.602;2023-09-12T08:49:11;18.16;95.72
66740;DHT22;53653;52.188;8.602;2023-09-12T08:51:37;18.02;96.69
66740;DHT22;53653;52.188;8.602;2023-09-12T08:54:03;17.82;97.71
66740;DHT22;53653;52.188;8.602;2023-09-12T08:56:36;17.78;98.14
66740;DHT22;53653;52.188;8.602;2023-09-12T08:59:03;17.72;98.22
66740;DHT22;53653;52.188;8.602;2023-09-12T09:01:32;17.74;98.60
66740;DHT22;53653;52.188;8.602;2023-09-12T09:04:01;17.69;98.05
66740;DHT22;53653;52.188;8.602;2023-09-12T09:06:30;17.81;98.15
66740;DHT22;53653;52.188;8.602;2023-09-12T09:08:59;17.82;98.27
66740;DHT22;53653;52.188;8.602;2023-09-12T09:11:25;17.82;98.30
66740;DHT22;53653;52.188;8.602;2023-09-12T09:13:53;17.74;98.16
66740;DHT22;53653;52.188;8.602;2023-09-12T09:16:18;17.81;98.51
66740;DHT22;53653;52.188;8.602;2023-09-12T09:18:54;17.79;98.56
66740;DHT22;53653;52.188;8.602;2023-09-12T09:21:21;17.82;98.65
66740;DHT22;53653;52.188;8.602;2023-09-12T09:23:50;17.76;98.27
66740;DHT22;53653;52.188;8.602;2023-09-12T09:26:15;17.76;98.09
66740;DHT22;53653;52.188;8.602;2023-09-12T09:28:44;17.85;98.21
66740;DHT22;53653;52.188;8.602;2023-09-12T09:31:12;17.93;97.98
66740;DHT22;53653;52.188;8.602;2023-09-12T09:33:39;18.00;97.68
66740;DHT22;53653;52.188;8.602;2023-09-12T09:36:07;18.04;97.44
66740;DHT22;53653;52.188;8.602;2023-09-12T09:38:34;18.09;97.14
66740;DHT22;53653;52.188;8.602;2023-09-12T09:41:04;18.10;97.27
66740;DHT22;53653;52.188;8.602;2023-09-12T09:43:30;18.07;97.01
66740;DHT22;53653;52.188;8.602;2023-09-12T09:45:57;18.09;96.94
66740;DHT22;53653;52.188;8.602;2023-09-12T09:48:24;18.17;97.33
66740;DHT22;53653;52.188;8.602;2023-09-12T09:50:52;18.20;96.80
66740;DHT22;53653;52.188;8.602;2023-09-12T09:53:31;18.14;97.27
66740;DHT22;53653;52.188;8.602;2023-09-12T09:56:12;18.00;97.76
66740;DHT22;53653;52.188;8.602;2023-09-12T09:58:54;17.92;98.68
66740;DHT22;53653;52.188;8.602;2023-09-12T10:01:28;17.86;98.78
66740;DHT22;53653;52.188;8.602;2023-09-12T10:03:58;17.89;98.74
66740;DHT22;53653;52.188;8.602;2023-09-12T10:06:24;17.89;98.67
66740;DHT22;53653;52.188;8.602;2023-09-12T10:08:51;17.89;98.50
66740;DHT22;53653;52.188;8.602;2023-09-12T10:11:19;17.99;98.70
66740;DHT22;53653;52.188;8.602;2023-09-12T10:13:56;18.06;98.32
66740;DHT22;53653;52.188;8.602;2023-09-12T10:16:30;18.04;98.01
66740;DHT22;53653;52.188;8.602;2023-09-12T10:22:28;18.09;97.43
66740;DHT22;53653;52.188;8.602;2023-09-12T10:24:35;18.07;97.23
66740;DHT22;53653;52.188;8.602;2023-09-12T10:27:02;18.04;97.76
66740;DHT22;53653;52.188;8.602;2023-09-12T10:29:30;17.96;98.20
66740;DHT22;53653;52.188;8.602;2023-09-12T10:31:56;17.95;98.62
66740;DHT22;53653;52.188;8.602;2023-09-12T10:34:24;17.92;98.60
66740;DHT22;53653;52.188;8.602;2023-09-12T10:36:50;17.92;98.95
66740;DHT22;53653;52.188;8.602;2023-09-12T10:39:19;17.93;99.00
66740;DHT22;53653;52.188;8.602;2023-09-12T10:41:46;17.89;98.60
66740;DHT22;53653;52.188;8.602;2023-09-12T10:44:16;17.93;98.69
66740;DHT22;53653;52.188;8.602;2023-09-12T10:46:42;18.03;98.41
66740;DHT22;53653;52.188;8.602;2023-09-12T10:49:09;18.00;98.55
66740;DHT22;53653;52.188;8.602;2023-09-12T10:51:45;18.07;98.63
66740;DHT22;53653;52.188;8.602;2023-09-12T10:54:24;18.09;98.50
66740;DHT22;53653;52.188;8.602;2023-09-12T10:57:07;18.12;98.26
66740;DHT22;53653;52.188;8.602;2023-09-12T10:59:33;18.14;98.66
66740;DHT22;53653;52.188;8.602;2023-09-12T11:04:59;18.13;98.53
66740;DHT22;53653;52.188;8.602;2023-09-12T11:10:21;18.16;98.34
66740;DHT22;53653;52.188;8.602;2023-09-12T11:12:52;18.32;98.29
66740;DHT22;53653;52.188;8.602;2023-09-12T11:15:19;18.44;97.69
66740;DHT22;53653;52.188;8.602;2023-09-12T11:17:47;18.55;97.07
66740;DHT22;53653;52.188;8.602;2023-09-12T11:20:14;18.82;96.10
66740;DHT22;53653;52.188;8.602;2023-09-12T11:22:45;19.43;95.82
66740;DHT22;53653;52.188;8.602;2023-09-12T11:25:24;19.91;92.53
66740;DHT22;53653;52.188;8.602;2023-09-12T11:30:23;20.67;89.33
66740;DHT22;53653;52.188;8.602;2023-09-12T11:32:50;20.84;88.47
66740;DHT22;53653;52.188;8.602;2023-09-12T11:35:21;21.14;86.50
66740;DHT22;53653;52.188;8.602;2023-09-12T11:37:52;21.75;86.38
66740;DHT22;53653;52.188;8.602;2023-09-12T11:40:23;22.47;83.23
66740;DHT22;53653;52.188;8.602;2023-09-12T11:42:50;22.18;82.16
66740;DHT22;53653;52.188;8.602;2023-09-12T11:45:20;21.63;82.73
66740;DHT22;53653;52.188;8.602;2023-09-12T11:47:47;22.40;83.77
66740;DHT22;53653;52.188;8.602;2023-09-12T11:50:33;22.49;80.59
66740;DHT22;53653;52.188;8.602;2023-09-12T11:53:01;22.78;81.59
66740;DHT22;53653;52.188;8.602;2023-09-12T11:55:31;22.89;80.58
66740;DHT22;53653;52.188;8.602;2023-09-12T11:57:57;23.17;78.97
66740;DHT22;53653;52.188;8.602;2023-09-12T12:00:22;23.19;79.64
66740;DHT22;53653;52.188;8.602;2023-09-12T12:02:49;22.55;80.61
66740;DHT22;53653;52.188;8.602;2023-09-12T12:05:15;21.92;83.21
66740;DHT22;53653;52.188;8.602;2023-09-12T12:07:40;21.94;82.60
66740;DHT22;53653;52.188;8.602;2023-09-12T12:10:08;22.38;82.43
66740;DHT22;53653;52.188;8.602;2023-09-12T12:12:33;22.69;79.57
66740;DHT22;53653;52.188;8.602;2023-09-12T12:14:58;22.75;81.11
66740;DHT22;53653;52.188;8.602;2023-09-12T12:17:24;22.92;78.68
66740;DHT22;53653;52.188;8.602;2023-09-12T12:19:49;22.92;79.63
66740;DHT22;53653;52.188;8.602;2023-09-12T12:22:15;22.38;81.26
66740;DHT22;53653;52.188;8.602;2023-09-12T12:24:46;22.72;80.19
66740;DHT22;53653;52.188;8.602;2023-09-12T12:27:11;22.92;79.51
66740;DHT22;53653;52.188;8.602;2023-09-12T12:29:39;23.09;78.31
66740;DHT22;53653;52.188;8.602;2023-09-12T12:32:05;23.64;78.12
66740;DHT22;53653;52.188;8.602;2023-09-12T12:34:31;23.55;78.37
66740;DHT22;53653;52.188;8.602;2023-09-12T12:36:57;23.70;76.81
66740;DHT22;53653;52.188;8.602;2023-09-12T12:39:23;23.55;76.77
66740;DHT22;53653;52.188;8.602;2023-09-12T12:41:52;23.42;77.16
66740;DHT22;53653;52.188;8.602;2023-09-12T12:44:18;23.31;76.41
66740;DHT22;53653;52.188;8.602;2023-09-12T12:46:53;23.06;78.33
66740;DHT22;53653;52.188;8.602;2023-09-12T12:49:20;23.27;78.35
66740;DHT22;53653;52.188;8.602;2023-09-12T12:51:46;23.27;76.81
66740;DHT22;53653;52.188;8.602;2023-09-12T12:54:13;23.27;76.63
66740;DHT22;53653;52.188;8.602;2023-09-12T12:56:39;23.30;77.09
66740;DHT22;53653;52.188;8.602;2023-09-12T12:59:06;23.37;77.52
66740;DHT22;53653;52.188;8.602;2023-09-12T13:01:37;23.54;76.53
66740;DHT22;53653;52.188;8.602;2023-09-12T13:04:07;23.77;77.11
66740;DHT22;53653;52.188;8.602;2023-09-12T13:06:33;23.88;75.22
66740;DHT22;53653;52.188;8.602;2023-09-12T13:09:03;24.00;75.25
66740;DHT22;53653;52.188;8.602;2023-09-12T13:11:31;24.29;73.48
66740;DHT22;53653;52.188;8.602;2023-09-12T13:13:59;24.39;74.09
66740;DHT22;53653;52.188;8.602;2023-09-12T13:16:25;24.36;74.00
66740;DHT22;53653;52.188;8.602;2023-09-12T13:18:51;24.19;75.01
66740;DHT22;53653;52.188;8.602;2023-09-12T13:21:16;24.11;74.68
66740;DHT22;53653;52.188;8.602;2023-09-12T13:23:42;24.09;74.99
66740;DHT22;53653;52.188;8.602;2023-09-12T13:26:08;24.06;74.36
66740;DHT22;53653;52.188;8.602;2023-09-12T13:28:34;24.04;75.32
66740;DHT22;53653;52.188;8.602;2023-09-12T13:30:59;23.95;75.46
66740;DHT22;53653;52.188;8.602;2023-09-12T13:33:25;24.01;74.12
66740;DHT22;53653;52.188;8.602;2023-09-12T13:35:51;24.02;75.72
66740;DHT22;53653;52.188;8.602;2023-09-12T13:38:17;24.13;74.62
66740;DHT22;53653;52.188;8.602;2023-09-12T13:40:45;24.43;73.50
66740;DHT22;53653;52.188;8.602;2023-09-12T13:43:11;24.56;72.34
66740;DHT22;53653;52.188;8.602;2023-09-12T13:45:37;24.73;72.42
66740;DHT22;53653;52.188;8.602;2023-09-12T13:48:03;24.36;72.87
66740;DHT22;53653;52.188;8.602;2023-09-12T13:50:30;24.40;72.54
66740;DHT22;53653;52.188;8.602;2023-09-12T13:52:58;24.57;73.10
66740;DHT22;53653;52.188;8.602;2023-09-12T13:55:25;24.70;71.70
66740;DHT22;53653;52.188;8.602;2023-09-12T13:57:50;24.83;71.09
66740;DHT22;53653;52.188;8.602;2023-09-12T14:00:16;24.76;70.84
66740;DHT22;53653;52.188;8.602;2023-09-12T14:02:41;24.73;71.25
66740;DHT22;53653;52.188;8.602;2023-09-12T14:05:07;24.67;72.17
66740;DHT22;53653;52.188;8.602;2023-09-12T14:07:33;24.59;72.13
66740;DHT22;53653;52.188;8.602;2023-09-12T14:09:58;24.69;72.06
66740;DHT22;53653;52.188;8.602;2023-09-12T14:12:24;24.64;71.14
66740;DHT22;53653;52.188;8.602;2023-09-12T14:14:51;24.59;72.49
66740;DHT22;53653;52.188;8.602;2023-09-12T14:17:17;24.55;71.34
66740;DHT22;53653;52.188;8.602;2023-09-12T14:19:43;24.50;72.24
66740;DHT22;53653;52.188;8.602;2023-09-12T14:22:08;24.52;72.93
66740;DHT22;53653;52.188;8.602;2023-09-12T14:24:34;24.57;72.25
66740;DHT22;53653;52.188;8.602;2023-09-12T14:26:59;24.60;72.51
66740;DHT22;53653;52.188;8.602;2023-09-12T14:29:25;24.61;71.53
66740;DHT22;53653;52.188;8.602;2023-09-12T14:31:53;24.02;72.99
66740;DHT22;53653;52.188;8.602;2023-09-12T14:34:26;24.26;73.24
66740;DHT22;53653;52.188;8.602;2023-09-12T14:36:57;24.39;73.41
66740;DHT22;53653;52.188;8.602;2023-09-12T14:39:23;24.53;72.67
66740;DHT22;53653;52.188;8.602;2023-09-12T14:41:49;24.70;71.58
66740;DHT22;53653;52.188;8.602;2023-09-12T14:44:22;24.67;72.01
66740;DHT22;53653;52.188;8.602;2023-09-12T14:46:48;24.64;71.33
66740;DHT22;53653;52.188;8.602;2023-09-12T14:49:13;24.57;72.48
66740;DHT22;53653;52.188;8.602;2023-09-12T14:51:39;24.57;71.97
66740;DHT22;53653;52.188;8.602;2023-09-12T14:54:05;24.37;72.41
66740;DHT22;53653;52.188;8.602;2023-09-12T14:56:31;24.00;73.68
66740;DHT22;53653;52.188;8.602;2023-09-12T14:58:57;23.43;75.53
66740;DHT22;53653;52.188;8.602;2023-09-12T15:01:23;23.42;76.39
66740;DHT22;53653;52.188;8.602;2023-09-12T15:03:52;23.53;76.18
66740;DHT22;53653;52.188;8.602;2023-09-12T15:06:18;23.78;76.11
66740;DHT22;53653;52.188;8.602;2023-09-12T15:08:43;23.53;75.55
66740;DHT22;53653;52.188;8.602;2023-09-12T15:11:09;23.31;76.64
66740;DHT22;53653;52.188;8.602;2023-09-12T15:13:36;23.27;76.45
66740;DHT22;53653;52.188;8.602;2023-09-12T15:16:02;23.44;76.27
66740;DHT22;53653;52.188;8.602;2023-09-12T15:18:28;23.42;75.85
66740;DHT22;53653;52.188;8.602;2023-09-12T15:20:53;23.23;76.62
66740;DHT22;53653;52.188;8.602;2023-09-12T15:23:19;23.34;76.23
66740;DHT22;53653;52.188;8.602;2023-09-12T15:25:51;23.31;75.74
66740;DHT22;53653;52.188;8.602;2023-09-12T15:28:16;23.27;76.11
66740;DHT22;53653;52.188;8.602;2023-09-12T15:30:42;23.20;76.34
66740;DHT22;53653;52.188;8.602;2023-09-12T15:33:08;23.28;75.98
66740;DHT22;53653;52.188;8.602;2023-09-12T15:35:33;23.28;76.32
66740;DHT22;53653;52.188;8.602;2023-09-12T15:37:59;23.50;76.27
66740;DHT22;53653;52.188;8.602;2023-09-12T15:40:26;23.55;74.96
66740;DHT22;53653;52.188;8.602;2023-09-12T15:42:52;23.27;76.28
66740;DHT22;53653;52.188;8.602;2023-09-12T15:45:17;23.20;76.94